createdAt,value
2018-12-27T00:00:36.131Z,101023.75
2018-12-27T00:03:05.867Z,101021.66
2018-12-27T00:05:35.536Z,101018.67
2018-12-27T00:08:05.751Z,101012.78
2018-12-27T00:10:36.771Z,101009.89
2018-12-27T00:13:06.441Z,101028.61
2018-12-27T00:15:36.085Z,101020.84
2018-12-27T00:18:06.003Z,101006.20
2018-12-27T00:20:35.739Z,101003.20
2018-12-27T00:23:25.158Z,101010.98
2018-12-27T00:25:54.859Z,101004.50
2018-12-27T00:28:24.497Z,101005.20
2018-12-27T00:30:54.352Z,101004.71
2018-12-27T00:33:24.136Z,101002.43
2018-12-27T00:35:53.891Z,101006.22
2018-12-27T00:38:23.759Z,101005.33
2018-12-27T00:40:53.818Z,101009.91
2018-12-27T00:43:23.574Z,101015.50
2018-12-27T00:46:12.392Z,101014.02
2018-12-27T00:48:42.143Z,101012.63
2018-12-27T00:51:11.907Z,101030.16
2018-12-27T00:53:41.791Z,101018.71
2018-12-27T00:56:30.612Z,101024.59
2018-12-27T00:59:00.580Z,101024.00
2018-12-27T01:01:30.317Z,101025.05
2018-12-27T01:04:00.077Z,101024.85
2018-12-27T01:06:29.978Z,101012.92
2018-12-27T01:08:59.733Z,100986.69
2018-12-27T01:11:29.723Z,101007.85
2018-12-27T01:13:59.823Z,101004.67
2018-12-27T01:16:29.571Z,101011.05
2018-12-27T01:18:59.322Z,101013.04
2018-12-27T01:21:29.458Z,101004.69
2018-12-27T01:23:59.213Z,101001.51
2018-12-27T01:26:29.067Z,101001.31
2018-12-27T01:28:59.028Z,100998.23
2018-12-27T01:31:28.772Z,100994.16
2018-12-27T01:33:58.525Z,100992.36
2018-12-27T01:36:28.633Z,100995.16
2018-12-27T01:38:58.401Z,100992.47
2018-12-27T01:41:28.259Z,100985.91
2018-12-27T01:44:01.119Z,100992.77
2018-12-27T01:46:50.627Z,100984.52
2018-12-27T01:49:32.139Z,100980.05
2018-12-27T01:52:02.121Z,100983.33
2018-12-27T01:54:31.872Z,100986.31
2018-12-27T01:57:01.685Z,100986.52
2018-12-27T01:59:31.659Z,100991.69
2018-12-27T02:02:01.416Z,100994.97
2018-12-27T02:04:31.210Z,100993.58
2018-12-27T02:07:01.209Z,100990.80
2018-12-27T02:09:30.961Z,100994.58
2018-12-27T02:12:00.807Z,100992.20
2018-12-27T02:14:30.673Z,100998.16
2018-12-27T02:19:49.474Z,100991.00
2018-12-27T02:22:30.639Z,100983.55
2018-12-27T02:25:00.697Z,100993.78
2018-12-27T02:27:30.669Z,100989.02
2018-12-27T02:30:00.438Z,100989.91
2018-12-27T02:32:30.385Z,100985.44
2018-12-27T02:35:00.160Z,100987.02
2018-12-27T02:37:29.929Z,100983.44
2018-12-27T02:40:00.224Z,100987.22
2018-12-27T02:42:29.944Z,100990.11
2018-12-27T02:44:59.748Z,100987.92
2018-12-27T02:50:04.737Z,100987.32
2018-12-27T02:55:10.298Z,100971.11
2018-12-27T02:57:40.081Z,100991.69
2018-12-27T03:00:09.859Z,100984.53
2018-12-27T03:02:39.862Z,100985.22
2018-12-27T03:07:45.124Z,100979.66
2018-12-27T03:10:15.028Z,100979.55
2018-12-27T03:12:44.765Z,100982.03
2018-12-27T03:15:14.610Z,100980.04
2018-12-27T03:17:44.411Z,100974.67
2018-12-27T03:20:14.163Z,100975.56
2018-12-27T03:22:44.016Z,100974.97
2018-12-27T03:25:13.936Z,100978.64
2018-12-27T03:27:43.986Z,100976.84
2018-12-27T03:30:14.047Z,100976.75
2018-12-27T03:32:43.842Z,100983.99
2018-12-27T03:35:13.589Z,100979.13
2018-12-27T03:37:43.674Z,100981.31
2018-12-27T03:40:13.503Z,100976.83
2018-12-27T03:42:43.280Z,100971.96
2018-12-27T03:45:13.730Z,100971.96
2018-12-27T03:47:44.006Z,100971.36
2018-12-27T03:50:13.850Z,100969.17
2018-12-27T03:52:43.981Z,100970.66
2018-12-27T03:55:13.893Z,100974.83
2018-12-27T03:57:43.947Z,100976.91
2018-12-27T04:00:13.957Z,100984.95
2018-12-27T04:02:43.762Z,100984.84
2018-12-27T04:05:32.653Z,100986.03
2018-12-27T04:08:02.442Z,100989.02
2018-12-27T04:10:32.206Z,100845.10
2018-12-27T04:13:02.351Z,100988.59
2018-12-27T04:15:32.036Z,100976.48
2018-12-27T04:23:28.051Z,100978.25
2018-12-27T04:26:36.972Z,100979.83
2018-12-27T04:29:07.471Z,100975.45
2018-12-27T04:35:12.436Z,100981.31
2018-12-27T04:37:42.053Z,100974.64
2018-12-27T04:40:11.681Z,100976.23
2018-12-27T04:45:37.273Z,100979.28
2018-12-27T04:48:06.922Z,100978.28
2018-12-27T04:50:36.546Z,100974.80
2018-12-27T04:53:06.401Z,100979.86
2018-12-27T04:55:36.016Z,100977.57
2018-12-27T04:58:05.654Z,100973.09
2018-12-27T05:00:35.421Z,100980.34
2018-12-27T05:05:54.786Z,100990.45
2018-12-27T05:08:24.421Z,100990.73
2018-12-27T05:10:54.039Z,100994.50
2018-12-27T05:13:23.944Z,100991.02
2018-12-27T05:15:53.608Z,100991.81
2018-12-27T05:18:23.235Z,100986.05
2018-12-27T05:20:53.028Z,100985.94
2018-12-27T05:23:22.656Z,100990.09
2018-12-27T05:25:52.284Z,100994.65
2018-12-27T05:28:22.121Z,100997.91
2018-12-27T05:30:52.289Z,100996.12
2018-12-27T05:33:21.966Z,100990.95
2018-12-27T05:35:51.711Z,100988.88
2018-12-27T05:38:21.359Z,100991.96
2018-12-27T05:40:51.014Z,100993.14
2018-12-27T05:43:21.089Z,100985.80
2018-12-27T05:45:50.938Z,100988.27
2018-12-27T05:48:20.566Z,100988.67
2018-12-27T05:50:50.402Z,100992.64
2018-12-27T05:53:20.013Z,100986.98
2018-12-27T05:55:49.638Z,100994.33
2018-12-27T05:58:19.532Z,100991.25
2018-12-27T06:00:49.161Z,100996.69
2018-12-27T06:03:18.783Z,100991.14
2018-12-27T06:05:48.567Z,100989.34
2018-12-27T06:08:37.011Z,100987.16
2018-12-27T06:11:07.025Z,100988.95
2018-12-27T06:13:36.649Z,100957.50
2018-12-27T06:16:06.274Z,100988.45
2018-12-27T06:18:36.258Z,100987.16
2018-12-27T06:21:05.881Z,100992.32
2018-12-27T06:23:35.517Z,100995.41
2018-12-27T06:26:05.292Z,100984.19
2018-12-27T06:28:34.934Z,100983.40
2018-12-27T06:31:04.636Z,100983.91
2018-12-27T06:33:34.408Z,100994.33
2018-12-27T06:36:04.056Z,100999.09
2018-12-27T06:38:33.689Z,101001.39
2018-12-27T06:41:03.473Z,100989.37
2018-12-27T06:43:33.078Z,100984.33
2018-12-27T06:46:03.417Z,100980.85
2018-12-27T06:48:33.184Z,100974.51
2018-12-27T06:51:02.923Z,100986.73
2018-12-27T06:53:32.570Z,100985.05
2018-12-27T06:56:21.199Z,100989.31
2018-12-27T06:58:50.844Z,100983.86
2018-12-27T07:01:20.487Z,100984.25
2018-12-27T07:03:50.432Z,100978.59
2018-12-27T07:06:20.056Z,100976.91
2018-12-27T07:08:49.682Z,100977.02
2018-12-27T07:11:19.706Z,100973.83
2018-12-27T07:13:49.348Z,100975.01
2018-12-27T07:16:19.006Z,100969.34
2018-12-27T07:21:26.909Z,100983.65
2018-12-27T07:23:56.951Z,100968.45
2018-12-27T07:26:26.840Z,100971.25
2018-12-27T07:29:03.310Z,100975.62
2018-12-27T07:31:44.550Z,100973.83
2018-12-27T07:34:14.239Z,100979.78
2018-12-27T07:36:43.984Z,100977.88
2018-12-27T07:39:13.761Z,100978.16
2018-12-27T07:41:43.473Z,100977.27
2018-12-27T07:47:22.049Z,100973.80
2018-12-27T07:53:20.385Z,100968.63
2018-12-27T07:55:50.017Z,100970.42
2018-12-27T07:58:19.645Z,100971.32
2018-12-27T08:00:49.712Z,100966.16
2018-12-27T08:03:19.403Z,100964.37
2018-12-27T08:05:49.255Z,100969.03
2018-12-27T08:08:19.266Z,100959.00
2018-12-27T08:10:49.016Z,100954.23
2018-12-27T08:13:18.757Z,100949.86
2018-12-27T08:16:07.672Z,100960.28
2018-12-27T08:18:37.349Z,100973.19
2018-12-27T08:21:07.102Z,100977.73
2018-12-27T08:23:37.193Z,100979.03
2018-12-27T08:26:06.994Z,100985.87
2018-12-27T08:28:36.779Z,100984.76
2018-12-27T08:31:06.840Z,100976.13
2018-12-27T08:33:36.678Z,100972.76
2018-12-27T08:36:06.388Z,100963.84
2018-12-27T08:38:36.163Z,100972.79
2018-12-27T08:41:05.799Z,100972.50
2018-12-27T08:43:35.427Z,100972.33
2018-12-27T08:46:05.393Z,100971.64
2018-12-27T08:48:35.031Z,100981.28
2018-12-27T08:51:04.650Z,100977.13
2018-12-27T08:53:34.456Z,100986.76
2018-12-27T08:56:04.103Z,100986.08
2018-12-27T08:58:33.810Z,100988.77
2018-12-27T09:01:03.585Z,100989.87
2018-12-27T09:03:33.213Z,100983.92
2018-12-27T09:06:02.841Z,100987.21
2018-12-27T09:08:32.614Z,100985.84
2018-12-27T09:11:02.239Z,100978.30
2018-12-27T09:13:31.877Z,100973.45
2018-12-27T09:16:20.489Z,100979.14
2018-12-27T09:18:50.112Z,100980.75
2018-12-27T09:21:38.923Z,100977.38
2018-12-27T09:24:08.552Z,100975.89
2018-12-27T09:26:38.195Z,100969.25
2018-12-27T09:29:07.962Z,100975.80
2018-12-27T09:34:26.497Z,100968.97
2018-12-27T09:36:56.216Z,100964.31
2018-12-27T09:39:25.854Z,100957.66
2018-12-27T09:41:55.724Z,100954.98
2018-12-27T09:44:25.360Z,100955.19
2018-12-27T09:46:55.014Z,100955.39
2018-12-27T09:49:24.796Z,100954.41
2018-12-27T09:51:54.498Z,100946.25
2018-12-27T09:54:24.198Z,100946.86
2018-12-27T09:57:13.482Z,100942.08
2018-12-27T10:02:31.776Z,100948.25
2018-12-27T10:05:01.411Z,100936.31
2018-12-27T10:07:31.373Z,100947.75
2018-12-27T10:10:01.202Z,100931.44
2018-12-27T10:12:30.867Z,100936.41
2018-12-27T10:15:00.560Z,100924.97
2018-12-27T10:17:30.469Z,100926.35
2018-12-27T10:20:00.248Z,100925.94
2018-12-27T10:22:30.151Z,100924.55
2018-12-27T10:24:59.930Z,100925.64
2018-12-27T10:27:29.542Z,100923.45
2018-12-27T10:29:59.192Z,100926.73
2018-12-27T10:32:29.088Z,100922.67
2018-12-27T10:34:58.734Z,100918.10
2018-12-27T10:37:28.730Z,100911.13
2018-12-27T10:39:58.507Z,100914.09
2018-12-27T10:42:28.142Z,100904.77
2018-12-27T10:44:57.836Z,100915.91
2018-12-27T10:47:27.670Z,100906.67
2018-12-27T10:49:57.289Z,100905.77
2018-12-27T10:52:26.923Z,100907.74
2018-12-27T10:54:56.830Z,100731.58
2018-12-27T10:57:26.484Z,100898.89
2018-12-27T10:59:56.117Z,100898.98
2018-12-27T11:02:28.425Z,100885.55
2018-12-27T11:04:58.103Z,100880.08
2018-12-27T11:07:27.744Z,100888.13
2018-12-27T11:09:57.654Z,100879.85
2018-12-27T11:12:27.274Z,100881.03
2018-12-27T11:14:56.918Z,100878.23
2018-12-27T11:17:26.777Z,100878.84
2018-12-27T11:19:56.405Z,100877.87
2018-12-27T11:22:26.065Z,100879.28
2018-12-27T11:27:32.893Z,100873.42
2018-12-27T11:30:02.552Z,100870.73
2018-12-27T11:32:32.240Z,100865.56
2018-12-27T11:35:02.214Z,100859.20
2018-12-27T11:37:31.841Z,100868.05
2018-12-27T11:42:57.658Z,100858.38
2018-12-27T11:45:27.285Z,100871.90
2018-12-27T11:47:56.909Z,100864.83
2018-12-27T11:50:26.788Z,100857.66
2018-12-27T11:52:56.425Z,100863.51
2018-12-27T11:55:26.062Z,100853.47
2018-12-27T11:57:55.927Z,100847.21
2018-12-27T12:00:25.590Z,100845.55
2018-12-27T12:02:55.236Z,100841.36
2018-12-27T12:05:25.075Z,100842.75
2018-12-27T12:07:54.714Z,100843.45
2018-12-27T12:10:24.363Z,100840.48
2018-12-27T12:12:54.175Z,100841.38
2018-12-27T12:15:23.797Z,100848.03
2018-12-27T12:17:53.439Z,100838.39
2018-12-27T12:20:23.309Z,100843.97
2018-12-27T12:22:52.964Z,100843.28
2018-12-27T12:25:22.662Z,100840.91
2018-12-27T12:28:11.342Z,100841.61
2018-12-27T12:30:40.988Z,100839.23
2018-12-27T12:33:10.643Z,100834.95
2018-12-27T12:35:40.478Z,100835.45
2018-12-27T12:38:10.708Z,100833.85
2018-12-27T12:40:51.973Z,100838.23
2018-12-27T12:43:25.060Z,100832.66
2018-12-27T12:45:55.385Z,100837.33
2018-12-27T12:48:26.050Z,100838.13
2018-12-27T12:50:55.769Z,100827.50
2018-12-27T12:53:26.198Z,100829.99
2018-12-27T12:55:55.908Z,100834.58
2018-12-27T12:58:25.675Z,100838.36
2018-12-27T13:00:55.539Z,100836.38
2018-12-27T13:03:25.825Z,100834.50
2018-12-27T13:05:55.487Z,100833.81
2018-12-27T13:08:25.212Z,100828.05
2018-12-27T13:10:55.639Z,100831.34
2018-12-27T13:13:44.255Z,100835.61
2018-12-27T13:16:18.759Z,100831.64
2018-12-27T13:18:49.917Z,100835.52
2018-12-27T13:21:22.306Z,100836.01
2018-12-27T13:23:52.304Z,100833.33
2018-12-27T13:26:22.131Z,100836.71
2018-12-27T13:28:58.848Z,100837.41
2018-12-27T13:31:29.074Z,100838.61
2018-12-27T13:33:58.836Z,100841.09
2018-12-27T13:36:28.302Z,100836.63
2018-12-27T13:38:58.129Z,100831.86
2018-12-27T13:41:28.347Z,100833.14
2018-12-27T13:43:58.037Z,100830.47
2018-12-27T13:46:29.479Z,100823.52
2018-12-27T13:48:59.725Z,100820.34
2018-12-27T13:51:29.571Z,100826.80
2018-12-27T13:54:25.609Z,100824.11
2018-12-27T13:56:56.566Z,100831.77
2018-12-27T13:59:48.495Z,100815.17
2018-12-27T14:04:56.923Z,100818.45
2018-12-27T14:10:23.885Z,100816.58
2018-12-27T14:12:59.564Z,100814.39
2018-12-27T14:15:29.418Z,100808.72
2018-12-27T14:17:59.103Z,100813.49
2018-12-27T14:20:28.836Z,100807.03
2018-12-27T14:22:58.619Z,100802.27
2018-12-27T14:25:29.245Z,100800.98
2018-12-27T14:27:59.263Z,100795.31
2018-12-27T14:30:48.143Z,100796.70
2018-12-27T14:33:18.327Z,100794.12
2018-12-27T14:35:50.346Z,100794.52
2018-12-27T14:38:41.658Z,100800.58
2018-12-27T14:41:11.881Z,100795.02
2018-12-27T14:44:01.319Z,100799.68
2018-12-27T14:46:31.351Z,100791.94
2018-12-27T14:49:02.972Z,100795.91
2018-12-27T14:51:33.654Z,100792.13
2018-12-27T14:54:08.341Z,100792.92
2018-12-27T14:56:38.206Z,100781.30
2018-12-27T14:59:07.844Z,100784.88
2018-12-27T15:01:40.140Z,100780.20
2018-12-27T15:04:09.783Z,100777.22
2018-12-27T15:06:39.396Z,100772.64
2018-12-27T15:09:11.940Z,100773.63
2018-12-27T15:14:17.807Z,100764.98
2018-12-27T15:16:48.364Z,100772.73
2018-12-27T15:19:18.140Z,100778.89
2018-12-27T15:21:47.801Z,100780.59
2018-12-27T15:24:56.951Z,100772.55
2018-12-27T15:27:26.591Z,100770.56
2018-12-27T15:29:56.326Z,100772.56
2018-12-27T15:32:26.300Z,100772.06
2018-12-27T15:34:56.268Z,100774.74
2018-12-27T15:37:26.270Z,100773.15
2018-12-27T15:39:56.872Z,100770.17
2018-12-27T15:42:26.740Z,100769.77
2018-12-27T15:44:56.678Z,100768.87
2018-12-27T15:47:26.475Z,100765.00
2018-12-27T15:49:56.485Z,100764.91
2018-12-27T15:52:26.147Z,100767.09
2018-12-27T15:54:56.104Z,100768.38
2018-12-27T15:57:25.888Z,100769.67
2018-12-27T15:59:55.584Z,100770.86
2018-12-27T16:02:25.573Z,100777.33
2018-12-27T16:07:44.242Z,100772.25
2018-12-27T16:10:15.381Z,100770.07
2018-12-27T16:12:45.218Z,100773.73
2018-12-27T16:15:15.092Z,100774.73
2018-12-27T16:17:44.834Z,100771.34
2018-12-27T16:20:14.862Z,100772.64
2018-12-27T16:22:45.170Z,100777.41
2018-12-27T16:25:19.251Z,100774.54
2018-12-27T16:27:49.057Z,100785.67
2018-12-27T16:30:18.969Z,100787.27
2018-12-27T16:32:49.254Z,100787.16
2018-12-27T16:35:19.312Z,100784.88
2018-12-27T16:37:49.541Z,100781.41
2018-12-27T16:40:19.731Z,100782.20
2018-12-27T16:45:38.701Z,100782.01
2018-12-27T16:48:08.341Z,100777.34
2018-12-27T16:50:37.983Z,100776.05
2018-12-27T16:53:26.869Z,100778.33
2018-12-27T16:55:56.620Z,100774.55
2018-12-27T16:58:26.340Z,100773.35
2018-12-27T17:00:56.203Z,100767.79
2018-12-27T17:03:29.620Z,100772.06
2018-12-27T17:05:59.452Z,100777.62
2018-12-27T17:08:29.155Z,100774.95
2018-12-27T17:10:58.770Z,100765.81
2018-12-27T17:13:28.544Z,100780.02
2018-12-27T17:15:58.202Z,100768.79
2018-12-27T17:18:46.991Z,100765.71
2018-12-27T17:21:16.682Z,100761.34
2018-12-27T17:23:47.337Z,100767.80
2018-12-27T17:26:17.683Z,100758.66
2018-12-27T17:28:47.383Z,100761.64
2018-12-27T17:31:17.046Z,100758.97
2018-12-27T17:33:46.997Z,100761.55
2018-12-27T17:36:16.799Z,100757.08
2018-12-27T17:38:47.273Z,100760.55
2018-12-27T17:41:17.290Z,100755.30
2018-12-27T17:43:50.601Z,100754.89
2018-12-27T17:46:20.529Z,100759.16
2018-12-27T17:48:50.283Z,100752.22
2018-12-27T17:51:20.289Z,100754.40
2018-12-27T17:54:10.266Z,100753.20
2018-12-27T17:56:40.097Z,100755.30
2018-12-27T17:59:09.809Z,100757.08
2018-12-27T18:04:50.268Z,100758.27
2018-12-27T18:07:19.920Z,100756.19
2018-12-27T18:09:52.497Z,100747.15
2018-12-27T18:12:22.156Z,100753.60
2018-12-27T18:17:50.749Z,100756.59
2018-12-27T18:20:20.387Z,100756.09
2018-12-27T18:22:50.003Z,100759.97
2018-12-27T18:25:20.092Z,100761.75
2018-12-27T18:27:49.737Z,100766.81
2018-12-27T18:30:19.639Z,100769.41
2018-12-27T18:32:49.398Z,100770.30
2018-12-27T18:35:19.119Z,100769.41
2018-12-27T18:37:48.752Z,100771.98
2018-12-27T18:40:18.564Z,100768.11
2018-12-27T18:42:48.302Z,100772.97
2018-12-27T18:45:18.452Z,100764.33
2018-12-27T18:47:48.384Z,100766.62
2018-12-27T18:50:18.013Z,100766.62
2018-12-27T18:55:36.306Z,100767.41
2018-12-27T18:58:05.970Z,100775.66
2018-12-27T19:00:35.722Z,100778.73
2018-12-27T19:03:05.822Z,100779.53
2018-12-27T19:05:54.427Z,100782.61
2018-12-27T19:08:24.219Z,100781.02
2018-12-27T19:11:31.764Z,100787.97
2018-12-27T19:14:01.695Z,100787.97
2018-12-27T19:16:31.472Z,100797.31
2018-12-27T19:19:01.181Z,100800.69
2018-12-27T19:21:56.744Z,100799.89
2018-12-27T19:24:26.379Z,100801.98
2018-12-27T19:26:56.032Z,100808.84
2018-12-27T19:29:25.973Z,100810.03
2018-12-27T19:31:55.815Z,100813.11
2018-12-27T19:34:25.546Z,100820.86
2018-12-27T19:36:55.493Z,100820.76
2018-12-27T19:39:25.110Z,100825.03
2018-12-27T19:42:13.824Z,100823.64
2018-12-27T19:47:34.694Z,100827.81
2018-12-27T19:50:08.039Z,100827.61
2018-12-27T19:52:38.065Z,100828.80
2018-12-27T19:55:10.738Z,100825.62
2018-12-27T19:57:41.191Z,100830.69
2018-12-27T20:00:10.809Z,100833.08
2018-12-27T20:02:59.707Z,100830.00
2018-12-27T20:05:31.602Z,100829.80
2018-12-27T20:10:56.687Z,100831.68
2018-12-27T20:13:26.392Z,100833.27
2018-12-27T20:15:56.015Z,100827.11
2018-12-27T20:18:25.982Z,100834.75
2018-12-27T20:20:55.727Z,100834.66
2018-12-27T20:23:25.634Z,100836.34
2018-12-27T20:25:55.540Z,100834.16
2018-12-27T20:28:25.187Z,100834.66
2018-12-27T20:30:54.873Z,100838.52
2018-12-27T20:33:24.851Z,100832.07
2018-12-27T20:35:54.500Z,100835.05
2018-12-27T20:38:24.162Z,100842.40
2018-12-27T20:40:54.123Z,100838.03
2018-12-27T20:43:23.793Z,100838.52
2018-12-27T20:45:53.429Z,100840.71
2018-12-27T20:48:23.347Z,100841.90
2018-12-27T20:53:45.266Z,100838.62
2018-12-27T20:56:15.725Z,100839.81
2018-12-27T20:58:46.427Z,100840.71
2018-12-27T21:01:17.101Z,100842.89
2018-12-27T21:03:47.170Z,100849.45
2018-12-27T21:06:17.289Z,100843.39
2018-12-27T21:08:46.998Z,100843.89
2018-12-27T21:14:05.783Z,100848.66
2018-12-27T21:16:35.444Z,100842.60
2018-12-27T21:19:05.093Z,100839.52
2018-12-27T21:21:35.171Z,100847.27
2018-12-27T21:24:04.812Z,100848.06
2018-12-27T21:26:34.473Z,100854.61
2018-12-27T21:31:39.824Z,100853.42
2018-12-27T21:34:09.550Z,100860.77
2018-12-27T21:36:39.447Z,100861.96
2018-12-27T21:39:09.609Z,100859.78
2018-12-27T21:41:39.283Z,100862.76
2018-12-27T21:44:08.926Z,100863.95
2018-12-27T21:46:39.073Z,100862.55
2018-12-27T21:49:08.780Z,100865.92
2018-12-27T21:51:38.603Z,100861.95
2018-12-27T21:54:08.328Z,100862.35
2018-12-27T21:56:38.006Z,100868.41
2018-12-27T21:59:07.641Z,100866.52
2018-12-27T22:02:17.750Z,100868.09
2018-12-27T22:04:47.563Z,100870.98
2018-12-27T22:07:17.504Z,100871.88
2018-12-27T22:09:47.268Z,100876.43
2018-12-27T22:12:16.950Z,100872.36
2018-12-27T22:14:46.607Z,100873.64
2018-12-27T22:17:16.706Z,100870.56
2018-12-27T22:19:46.353Z,100877.02
2018-12-27T22:22:16.004Z,100883.27
2018-12-27T22:25:04.912Z,100885.05
2018-12-27T22:27:34.600Z,100889.42
2018-12-27T22:30:04.352Z,100884.27
2018-12-27T22:32:34.090Z,100888.13
2018-12-27T22:35:03.722Z,100884.16
2018-12-27T22:37:33.449Z,100884.05
2018-12-27T22:40:03.170Z,100886.14
2018-12-27T22:42:32.839Z,100886.93
2018-12-27T22:45:02.467Z,100883.75
2018-12-27T22:47:32.603Z,100887.61
2018-12-27T22:50:02.318Z,100884.64
2018-12-27T22:52:32.031Z,100882.06
2018-12-27T22:55:04.818Z,100890.59
2018-12-27T22:57:34.748Z,100894.56
2018-12-27T23:03:00.001Z,100884.04
2018-12-27T23:05:30.247Z,100879.06
2018-12-27T23:07:59.873Z,100888.39
2018-12-27T23:10:29.780Z,100890.36
2018-12-27T23:12:59.414Z,100896.31
2018-12-27T23:15:29.035Z,100895.31
2018-12-27T23:17:58.911Z,100900.77
2018-12-27T23:20:28.565Z,100907.00
2018-12-27T23:22:58.191Z,100913.64
2018-12-27T23:25:28.070Z,100914.42
2018-12-27T23:27:57.727Z,100918.59
2018-12-27T23:30:27.382Z,100911.92
2018-12-27T23:32:57.236Z,100919.16
2018-12-27T23:35:26.863Z,100911.61
2018-12-27T23:37:56.526Z,100910.11
2018-12-27T23:40:26.462Z,100913.08
2018-12-27T23:42:56.100Z,100919.70
2018-12-27T23:45:25.849Z,100919.31
2018-12-27T23:47:55.938Z,100925.36
2018-12-27T23:50:25.573Z,100924.47
2018-12-27T23:52:55.201Z,100934.39
2018-12-27T23:55:25.212Z,100937.66
2018-12-27T23:57:54.846Z,100938.44
